Time;durP1;ratioP1;P1;durP2;ratioP2;P2;SDS_P1;SDS_P2;PMS_P1;PMS_P2;Temp;Humidity;BMP_temperature;BMP_pressure;BME280_temperature;BME280_humidity;BME280_pressure;Samples;Min_cycle;Max_cycle;Signal;HPM_P1;HPM_P2
2022/07/15 06:23:28;;;;;;;13.85;3.88;;;;;;;18.58;48.89;96935.09;2100470;27;20578;-63
2022/07/15 06:24:30;;;;;;;21.77;3.45;;;;;;;18.74;44.60;96929.53;2098091;28;20529;-63
2022/07/15 06:25:31;;;;;;;21.27;3.40;;;;;;;18.95;44.89;96931.59;2098936;28;20210;-63
2022/07/15 06:26:33;;;;;;;27.77;3.22;;;;;;;19.14;43.54;96939.00;2098732;28;20199;-64
2022/07/15 06:27:35;;;;;;;19.83;2.65;;;;;;;18.90;43.37;96929.28;2086758;28;20216;-66
2022/07/15 06:44:07;;;;;;;6.38;1.70;;;;;;;19.89;38.70;96934.25;2084327;28;20569;-63
2022/07/15 06:45:10;;;;;;;4.68;1.80;;;;;;;20.14;38.63;96935.00;2077025;28;20601;-64
2022/07/15 06:46:12;;;;;;;5.75;1.48;;;;;;;20.33;38.07;96935.19;2075736;28;20201;-64
2022/07/15 06:47:14;;;;;;;4.28;1.70;;;;;;;20.46;38.27;96935.06;2069066;28;20369;-64
2022/07/15 06:59:19;;;;;;;2.88;1.50;;;;;;;20.75;35.20;96933.69;2093521;28;20566;-65
2022/07/15 07:00:21;;;;;;;2.80;1.20;;;;;;;20.37;35.54;96925.19;2093193;28;20553;-65
2022/07/15 07:01:23;;;;;;;4.43;1.30;;;;;;;19.90;35.47;96933.28;2085611;28;20246;-66
2022/07/15 07:02:24;;;;;;;3.15;1.25;;;;;;;20.35;36.18;96933.28;2077971;28;20225;-66
2022/07/15 07:03:26;;;;;;;3.15;1.20;;;;;;;20.49;36.65;96939.28;2074673;28;20190;-67
2022/07/15 07:16:56;;;;;;;4.20;1.55;;;;;;;21.56;33.40;96914.66;2093495;27;20540;-64
2022/07/15 07:17:57;;;;;;;4.43;1.27;;;;;;;21.36;33.97;96928.63;2079761;28;20644;-64
2022/07/15 07:18:59;;;;;;;8.02;1.20;;;;;;;21.64;33.57;96931.63;2078954;28;20673;-64
2022/07/15 07:20:01;;;;;;;2.40;1.10;;;;;;;20.88;34.31;96918.47;2079451;28;20212;-64
2022/07/15 07:21:02;;;;;;;3.42;1.20;;;;;;;20.74;35.09;96927.56;2079168;28;20830;-64
2022/07/15 07:32:56;;;;;;;3.28;1.17;;;;;;;21.25;33.96;96915.41;2091201;28;20561;-64
2022/07/15 07:33:58;;;;;;;5.97;1.40;;;;;;;21.37;34.45;96924.16;2092335;28;20192;-64
2022/07/15 07:35:00;;;;;;;4.28;1.20;;;;;;;21.64;34.48;96917.50;2082714;28;20398;-63
2022/07/15 07:36:03;;;;;;;3.90;1.20;;;;;;;22.11;33.99;96928.50;2084622;28;20201;-66
2022/07/15 07:37:04;;;;;;;6.95;1.52;;;;;;;22.34;33.48;96934.44;2085528;28;20235;-65
2022/07/15 07:48:18;;;;;;;4.20;1.00;;;;;;;20.73;34.15;96925.88;2085539;28;20563;-65
2022/07/15 07:49:19;;;;;;;5.45;1.38;;;;;;;20.78;34.82;96912.22;2079356;28;20204;-65
2022/07/15 07:50:38;;;;;;;2.63;1.20;;;;;;;21.36;34.24;96925.13;2079524;28;20197;-65
2022/07/15 07:51:41;;;;;;;5.78;1.35;;;;;;;21.51;33.61;96921.16;2080707;28;20652;-65
2022/07/15 07:52:42;;;;;;;2.42;1.10;;;;;;;21.52;33.85;96927.31;2075646;28;20370;-65
2022/07/15 07:53:46;;;;;;;2.97;1.00;;;;;;;21.29;33.90;96916.84;2074239;28;20197;-65
2022/07/15 08:05:28;;;;;;;5.85;1.58;;;;;;;23.41;31.34;96927.59;2084437;28;20568;-65
2022/07/15 08:06:29;;;;;;;6.85;1.50;;;;;;;23.69;31.44;96922.38;2078656;28;20201;-65
2022/07/15 08:07:31;;;;;;;19.77;1.67;;;;;;;23.74;30.26;96921.94;2078535;28;20220;-65
2022/07/15 08:08:32;;;;;;;6.63;1.27;;;;;;;23.83;30.62;96922.91;2078302;28;20542;-65
2022/07/15 08:09:34;;;;;;;5.90;1.10;;;;;;;23.98;30.56;96921.47;2078101;28;20196;-65
2022/07/15 08:10:35;;;;;;;3.92;1.20;;;;;;;24.15;30.49;96927.03;2078309;28;20205;-65
2022/07/15 08:11:37;;;;;;;3.95;0.93;;;;;;;24.36;30.85;96926.78;2078304;28;20556;-65
2022/07/15 08:23:09;;;;;;;6.72;1.73;;;;;;;21.54;34.13;96917.41;2084452;27;20577;-65
2022/07/15 08:24:12;;;;;;;4.32;1.63;;;;;;;21.67;33.89;96920.75;2069124;28;20197;-65
2022/07/15 08:25:13;;;;;;;2.85;1.27;;;;;;;22.00;33.71;96918.81;2068915;28;20563;-65
2022/07/15 08:26:18;;;;;;;3.10;1.05;;;;;;;21.96;34.83;96925.34;2069454;28;20820;-65
2022/07/15 08:27:20;;;;;;;8.77;1.45;;;;;;;21.76;33.71;96918.25;2060693;28;20218;-65
2022/07/15 08:28:22;;;;;;;2.65;1.20;;;;;;;21.38;34.50;96915.19;2061292;28;20194;-65
2022/07/15 08:29:44;;;;;;;3.25;1.33;;;;;;;22.10;33.44;96915.34;2060736;28;20217;-65
2022/07/15 08:30:46;;;;;;;6.40;1.25;;;;;;;22.45;33.57;96919.41;2060584;28;20218;-65
2022/07/15 08:43:19;;;;;;;4.50;1.25;;;;;;;23.95;32.07;96922.59;2084666;28;20576;-65
2022/07/15 08:44:21;;;;;;;8.57;1.65;;;;;;;23.98;30.73;96923.31;2078626;28;20188;-65
2022/07/15 08:45:23;;;;;;;5.05;1.45;;;;;;;23.84;31.53;96921.94;2078886;28;20235;-65
2022/07/15 08:46:26;;;;;;;4.18;1.33;;;;;;;23.19;32.19;96923.44;2078507;28;20219;-65
2022/07/15 08:47:31;;;;;;;4.15;1.80;;;;;;;23.09;32.08;96925.22;2077078;28;20515;-65
2022/07/15 08:49:01;;;;;;;6.53;1.50;;;;;;;24.06;30.74;96926.06;2078040;28;20197;-65
2022/07/15 08:50:04;;;;;;;6.88;1.17;;;;;;;24.61;30.22;96926.09;2078830;28;20555;-65
2022/07/15 08:51:09;;;;;;;6.45;1.50;;;;;;;25.05;29.93;96929.88;2078751;28;20644;-66
2022/07/15 08:52:13;;;;;;;6.28;1.60;;;;;;;25.33;29.39;96929.78;2078359;28;20235;-66
2022/07/15 08:53:15;;;;;;;2.80;0.90;;;;;;;25.63;28.82;96935.75;2078583;28;20275;-66
2022/07/15 08:54:16;;;;;;;8.93;1.27;;;;;;;25.74;28.79;96930.16;2078768;28;20193;-66
2022/07/15 08:55:18;;;;;;;2.65;1.10;;;;;;;25.33;29.28;96929.78;2078937;28;20205;-66
2022/07/15 08:56:19;;;;;;;6.72;1.65;;;;;;;25.67;28.52;96929.09;2078209;28;20287;-66
2022/07/15 08:57:21;;;;;;;6.00;1.70;;;;;;;25.85;28.15;96929.88;2079470;28;20447;-66
2022/07/15 09:12:54;;;;;;;5.72;1.20;;;;;;;25.95;28.73;96940.44;2085084;28;20544;-65
2022/07/15 09:13:58;;;;;;;5.35;1.42;;;;;;;26.41;28.81;96932.19;2077453;28;20227;-66
2022/07/15 09:15:00;;;;;;;11.07;1.20;;;;;;;26.04;28.26;96928.81;2078937;28;20200;-66
2022/07/15 09:16:05;;;;;;;5.10;1.20;;;;;;;26.21;28.04;96929.75;2078443;28;20288;-66
2022/07/15 09:17:09;;;;;;;4.63;1.35;;;;;;;25.68;28.85;96931.59;2074070;28;20264;-66
2022/07/15 09:18:14;;;;;;;9.02;1.35;;;;;;;26.21;28.48;96934.28;2070590;28;20198;-66
2022/07/15 09:19:16;;;;;;;5.47;1.35;;;;;;;26.23;27.66;96933.13;2070520;28;20198;-66
2022/07/15 09:20:18;;;;;;;6.25;1.42;;;;;;;25.31;28.98;96929.97;2070605;28;20237;-66
2022/07/15 09:21:28;;;;;;;9.70;1.60;;;;;;;25.65;29.21;96923.91;2070508;28;20586;-66
2022/07/15 09:22:32;;;;;;;12.25;1.75;;;;;;;26.47;27.69;96926.19;2070088;28;20222;-66
2022/07/15 09:23:34;;;;;;;4.60;1.13;;;;;;;26.59;27.47;96926.75;2070690;28;20256;-66
2022/07/15 09:24:35;;;;;;;11.35;1.65;;;;;;;26.88;27.19;96928.16;2070554;28;20197;-66
2022/07/15 09:25:39;;;;;;;7.32;1.42;;;;;;;27.21;27.02;96925.53;2070470;28;20201;-66
2022/07/15 09:26:40;;;;;;;6.93;1.58;;;;;;;27.33;26.90;96932.22;2069436;28;20237;-66
2022/07/15 09:27:43;;;;;;;3.40;1.05;;;;;;;27.49;26.03;96928.75;2070301;28;20634;-66
2022/07/15 09:28:44;;;;;;;3.58;1.10;;;;;;;26.60;27.38;96919.53;2070568;28;20202;-66
2022/07/15 09:33:51;;;;;;;3.25;1.45;;;;;;;24.71;30.27;96931.41;2070711;28;20201;-66
2022/07/15 09:35:04;;;;;;;3.45;1.40;;;;;;;26.07;28.74;96930.38;2070525;28;20200;-66
2022/07/15 09:36:20;;;;;;;6.18;1.30;;;;;;;25.54;28.90;96927.66;2068764;28;20554;-66
2022/07/15 09:37:21;;;;;;;4.28;1.58;;;;;;;25.71;28.50;96933.13;2069700;28;20222;-66
2022/07/15 09:38:24;;;;;;;9.75;1.42;;;;;;;26.59;27.89;96932.09;2070531;28;20198;-66
2022/07/15 09:39:25;;;;;;;10.73;2.50;;;;;;;26.85;27.41;96933.84;2070409;28;20205;-66
2022/07/15 09:40:27;;;;;;;4.85;2.13;;;;;;;26.48;27.29;96929.72;2070577;28;20202;-66
2022/07/15 09:41:36;;;;;;;4.70;1.55;;;;;;;27.10;27.48;96928.56;2069591;28;20202;-67
2022/07/15 09:43:04;;;;;;;4.25;1.20;;;;;;;27.32;26.99;96933.22;2070070;28;20264;-66
2022/07/15 09:44:10;;;;;;;2.40;1.15;;;;;;;27.08;27.38;96935.91;2069378;28;20202;-66
2022/07/15 09:45:19;;;;;;;4.07;1.58;;;;;;;27.29;27.15;96941.63;2070146;28;20611;-66
2022/07/15 09:46:22;;;;;;;4.65;1.42;;;;;;;27.70;26.44;96935.44;2069122;28;20202;-66
2022/07/15 09:47:24;;;;;;;7.38;2.13;;;;;;;27.57;26.37;96935.13;2070019;28;20230;-66
2022/07/15 10:02:12;;;;;;;13.52;1.60;;;;;;;27.45;26.58;96942.66;2085734;28;20576;-65
2022/07/15 10:03:16;;;;;;;9.90;3.08;;;;;;;28.08;25.78;96946.44;2084475;28;20193;-65
2022/07/15 10:04:20;;;;;;;6.85;1.20;;;;;;;28.49;24.64;96942.78;2082676;28;20349;-65
2022/07/15 10:05:22;;;;;;;4.53;1.02;;;;;;;27.56;26.05;96942.31;2080715;28;20205;-66
2022/07/15 10:06:27;;;;;;;13.65;1.98;;;;;;;25.95;28.02;96936.94;2082262;28;20216;-66
2022/07/15 10:07:28;;;;;;;3.85;1.50;;;;;;;25.23;28.58;96937.88;2076923;28;20225;-66
2022/07/15 10:08:34;;;;;;;5.70;1.50;;;;;;;24.87;28.97;96940.56;2080541;28;20284;-66
2022/07/15 10:09:36;;;;;;;4.05;1.40;;;;;;;24.92;28.99;96941.81;2081574;28;20223;-66
2022/07/15 10:10:39;;;;;;;3.30;1.30;;;;;;;25.56;28.64;96931.03;2079826;28;20204;-66
2022/07/15 10:11:46;;;;;;;4.68;1.40;;;;;;;25.09;28.94;96934.78;2079327;28;20239;-66
2022/07/15 10:13:09;;;;;;;4.22;1.88;;;;;;;23.84;31.11;96928.09;2081532;28;20667;-66
2022/07/15 10:14:29;;;;;;;6.63;1.63;;;;;;;24.97;29.63;96932.50;2078482;28;20196;-66
2022/07/15 10:15:37;;;;;;;12.57;1.30;;;;;;;26.19;28.73;96933.59;2083079;28;20224;-66
2022/07/15 10:17:03;;;;;;;10.50;1.35;;;;;;;25.48;29.01;96922.94;2082995;28;20197;-65
2022/07/15 10:18:18;;;;;;;5.47;1.60;;;;;;;25.59;29.43;96928.03;2078235;28;20259;-66
2022/07/15 10:19:37;;;;;;;3.03;1.10;;;;;;;26.17;28.93;96933.75;2080561;28;20559;-66
2022/07/15 10:21:22;;;;;;;3.35;1.40;;;;;;;27.01;27.97;96927.69;2080758;28;20192;-66
2022/07/15 10:22:42;;;;;;;6.68;1.77;;;;;;;27.26;27.18;96927.72;2063847;28;20797;-66
2022/07/15 10:24:09;;;;;;;5.00;1.35;;;;;;;27.08;27.35;96926.00;2077402;28;20200;-67
2022/07/15 10:25:25;;;;;;;6.55;1.58;;;;;;;26.49;27.72;96920.69;2082622;28;20196;-66
2022/07/15 10:26:39;;;;;;;4.10;1.45;;;;;;;25.89;28.06;96925.03;2082241;28;20201;-66
2022/07/15 10:28:04;;;;;;;10.02;1.80;;;;;;;25.64;28.72;96922.22;2079831;28;20236;-66
2022/07/15 10:29:08;;;;;;;5.63;1.80;;;;;;;26.92;27.65;96916.13;2081164;28;20193;-66
2022/07/15 10:30:09;;;;;;;5.78;1.67;;;;;;;26.60;27.52;96916.84;2080146;28;20641;-67
2022/07/15 10:31:25;;;;;;;4.53;1.70;;;;;;;27.03;27.09;96907.78;2080680;28;20197;-66
2022/07/15 10:32:27;;;;;;;9.38;1.65;;;;;;;27.82;26.26;96925.19;2081936;28;20243;-66
2022/07/15 10:33:29;;;;;;;3.90;1.45;;;;;;;28.29;25.90;96926.25;2083252;28;20615;-65
2022/07/15 10:34:35;;;;;;;6.75;1.65;;;;;;;28.33;25.74;96917.69;2079890;28;20574;-67
2022/07/15 10:35:47;;;;;;;4.43;1.10;;;;;;;27.40;26.14;96913.69;2078666;28;20194;-66
2022/07/15 10:36:52;;;;;;;2.83;1.27;;;;;;;27.30;26.61;96911.13;2084380;28;20198;-67
2022/07/15 10:38:23;;;;;;;3.00;1.20;;;;;;;27.61;26.82;96909.63;2081647;28;20603;-67
2022/07/15 10:39:48;;;;;;;10.27;1.75;;;;;;;28.35;25.77;96918.34;2082812;28;20188;-67
2022/07/15 10:41:08;;;;;;;6.82;1.67;;;;;;;28.13;25.35;96914.56;2082779;28;20556;-66
2022/07/15 10:42:10;;;;;;;13.02;1.63;;;;;;;27.97;26.05;96919.94;2080824;28;20311;-67
2022/07/15 10:43:15;;;;;;;6.10;1.63;;;;;;;28.38;25.38;96917.16;2080311;28;20547;-67
2022/07/15 10:44:17;;;;;;;5.47;1.50;;;;;;;27.85;25.32;96906.91;2079784;28;20197;-67
2022/07/15 10:45:19;;;;;;;3.90;1.73;;;;;;;27.84;25.73;96915.13;2081712;28;20201;-66
2022/07/15 10:46:26;;;;;;;6.80;2.45;;;;;;;28.14;25.86;96907.38;2080340;28;20200;-66
2022/07/15 10:47:27;;;;;;;10.68;5.38;;;;;;;27.75;26.15;96889.34;2083838;28;20715;-66
2022/07/15 10:48:30;;;;;;;30.30;15.88;;;;;;;27.84;26.04;96901.72;2079807;28;20302;-66
2022/07/15 10:49:32;;;;;;;9.77;1.65;;;;;;;26.56;27.34;96911.84;2079855;28;20197;-66
2022/07/15 10:50:37;;;;;;;4.05;1.60;;;;;;;26.25;27.81;96903.53;2081275;28;20193;-65
2022/07/15 10:51:39;;;;;;;2.95;1.13;;;;;;;26.11;28.69;96907.66;2079331;28;20205;-66
2022/07/15 10:52:41;;;;;;;3.58;1.50;;;;;;;26.43;28.46;96907.94;2080709;28;20201;-66
2022/07/15 10:53:44;;;;;;;4.72;1.10;;;;;;;26.48;28.44;96906.44;2081190;28;20346;-66
2022/07/15 10:54:47;;;;;;;6.28;1.30;;;;;;;26.63;28.16;96901.31;2082698;28;20557;-66
2022/07/15 10:55:49;;;;;;;5.82;1.35;;;;;;;26.13;28.19;96907.47;2082161;28;20204;-66
2022/07/15 10:56:51;;;;;;;4.00;1.15;;;;;;;26.29;28.20;96906.72;2078142;28;20208;-66
2022/07/15 10:57:54;;;;;;;2.58;1.10;;;;;;;26.95;27.70;96901.56;2075601;28;20216;-66
2022/07/15 10:59:21;;;;;;;8.90;1.60;;;;;;;26.91;27.24;96906.41;2076644;28;20712;-66
2022/07/15 11:00:37;;;;;;;3.65;1.35;;;;;;;27.27;27.20;96890.00;2083353;28;20199;-66
2022/07/15 11:01:40;;;;;;;3.90;1.35;;;;;;;26.55;27.89;96903.94;2084901;28;20675;-65
2022/07/15 11:03:03;;;;;;;4.55;1.48;;;;;;;27.18;27.19;96904.44;2084132;28;20652;-65
2022/07/15 11:04:20;;;;;;;2.80;1.00;;;;;;;27.82;25.87;96901.88;2078252;28;20201;-66
2022/07/15 11:05:22;;;;;;;3.90;1.50;;;;;;;27.90;25.56;96901.03;2080002;28;20194;-66
2022/07/15 11:06:24;;;;;;;5.07;1.55;;;;;;;28.06;26.29;96899.34;2080545;28;20216;-66
2022/07/15 11:07:30;;;;;;;2.85;1.25;;;;;;;27.94;26.81;96894.31;2080894;28;20223;-66
2022/07/15 11:08:32;;;;;;;3.38;1.48;;;;;;;28.69;25.70;96894.06;2081447;28;20581;-66
2022/07/15 11:09:52;;;;;;;4.88;1.33;;;;;;;27.97;25.73;96887.75;2082870;28;20209;-66
2022/07/15 11:10:54;;;;;;;8.70;1.55;;;;;;;28.30;25.85;96891.19;2080573;28;20220;-66
2022/07/15 11:11:55;;;;;;;51.75;2.83;;;;;;;28.88;25.29;96896.28;2079894;28;20207;-66
2022/07/15 11:13:04;;;;;;;6.40;1.15;;;;;;;29.12;25.12;96891.75;2080377;28;20197;-66
2022/07/15 11:14:44;;;;;;;5.60;1.75;;;;;;;29.03;25.12;96884.72;2075488;28;20197;-67
2022/07/15 11:15:58;;;;;;;6.18;1.35;;;;;;;28.24;25.32;96891.03;2076323;28;20201;-66
2022/07/15 11:16:59;;;;;;;2.88;1.40;;;;;;;27.90;26.59;96881.44;2075043;28;20304;-66
2022/07/15 11:18:02;;;;;;;2.90;1.20;;;;;;;28.12;26.55;96882.53;2076033;28;20258;-69
2022/07/15 11:19:10;;;;;;;7.10;1.30;;;;;;;28.34;26.52;96886.28;2076650;28;20197;-68
2022/07/15 11:20:15;;;;;;;5.72;1.30;;;;;;;28.83;25.84;96887.91;2076019;28;20189;-68
2022/07/15 11:21:17;;;;;;;3.78;1.00;;;;;;;28.82;25.81;96884.41;2074454;28;20201;-66
2022/07/15 11:22:20;;;;;;;6.95;2.10;;;;;;;28.26;26.42;96884.47;2077023;28;20232;-69
2022/07/15 11:23:29;;;;;;;19.15;10.65;;;;;;;28.27;26.78;96885.34;2076112;28;20291;-69
2022/07/15 11:24:31;;;;;;;9.43;4.05;;;;;;;28.69;26.69;96891.38;2074128;28;20202;-69
2022/07/15 11:25:40;;;;;;;6.82;2.00;;;;;;;28.75;25.77;96891.50;2071896;28;20236;-69
2022/07/15 11:26:46;;;;;;;15.82;1.42;;;;;;;28.58;26.09;96901.47;2072071;28;20204;-69
2022/07/15 11:28:07;;;;;;;5.10;1.92;;;;;;;28.69;25.87;96891.38;2072047;28;20550;-69
2022/07/15 11:29:08;;;;;;;5.80;1.20;;;;;;;28.91;25.98;96892.38;2072616;28;20219;-68
2022/07/15 11:30:11;;;;;;;6.40;1.65;;;;;;;29.33;25.99;96891.06;2076343;28;20189;-69
2022/07/15 11:31:13;;;;;;;5.45;1.63;;;;;;;29.27;26.07;96887.25;2073143;28;20293;-68
2022/07/15 11:32:16;;;;;;;3.85;1.15;;;;;;;29.93;24.86;96893.91;2077201;28;20229;-69
2022/07/15 11:33:18;;;;;;;24.70;2.00;;;;;;;29.53;25.08;96894.09;2077316;28;20372;-69
2022/07/15 11:34:20;;;;;;;2.83;1.10;;;;;;;29.80;24.62;96884.59;2076874;28;20197;-69
2022/07/15 11:35:22;;;;;;;4.93;1.80;;;;;;;30.53;24.31;96892.03;2074704;28;20430;-68
2022/07/15 11:36:24;;;;;;;4.47;1.60;;;;;;;30.87;24.03;96890.53;2075083;28;20194;-68
2022/07/15 11:37:28;;;;;;;4.40;1.63;;;;;;;30.98;23.35;96885.66;2063753;28;20229;-68
2022/07/15 11:38:36;;;;;;;4.70;1.83;;;;;;;30.60;24.22;96886.69;2069241;28;20565;-68
2022/07/15 11:39:39;;;;;;;12.27;1.90;;;;;;;30.24;24.23;96884.81;2076232;28;20438;-68
2022/07/15 11:44:58;;;;;;;3.60;1.57;;;;;;;30.10;24.51;96889.16;2076266;28;20514;-69
2022/07/15 11:46:00;;;;;;;6.00;1.80;;;;;;;30.19;24.54;96888.03;2075976;28;20423;-69
2022/07/15 11:47:01;;;;;;;7.80;1.60;;;;;;;29.71;24.84;96884.84;2074292;28;20452;-68
2022/07/15 11:48:06;;;;;;;5.20;1.63;;;;;;;30.49;24.40;96885.34;2077027;28;21088;-68
2022/07/15 11:49:08;;;;;;;5.63;1.77;;;;;;;30.45;24.32;96892.94;2078173;28;20427;-68
2022/07/15 11:50:10;;;;;;;4.00;1.60;;;;;;;30.92;23.33;96882.72;2075607;28;20434;-68
2022/07/15 11:51:12;;;;;;;6.47;1.87;;;;;;;30.95;23.24;96879.63;2072801;28;20437;-68
2022/07/15 11:52:24;;;;;;;5.57;1.50;;;;;;;30.97;23.36;96881.28;2076394;28;20490;-68
2022/07/15 11:53:26;;;;;;;58.50;42.67;;;;;;;30.77;23.39;96885.44;2078851;28;20431;-68
2022/07/15 11:54:28;;;;;;;38.23;26.97;;;;;;;30.34;23.34;96873.75;2078388;28;20456;-65
2022/07/15 11:55:30;;;;;;;32.80;22.73;;;;;;;29.57;24.17;96854.22;2076288;28;20827;-66
2022/07/15 11:56:31;;;;;;;19.00;12.50;;;;;;;29.67;24.36;96881.69;2081126;28;20466;-67
2022/07/15 11:57:34;;;;;;;6.30;3.43;;;;;;;29.34;25.28;96882.00;2077505;28;20463;-67
2022/07/15 11:58:41;;;;;;;5.47;2.03;;;;;;;29.35;25.41;96881.00;2079551;28;20427;-67
2022/07/15 11:59:54;;;;;;;10.20;1.50;;;;;;;28.53;26.64;96882.34;2076961;28;20427;-67
2022/07/15 12:00:57;;;;;;;5.30;1.73;;;;;;;28.43;26.08;96882.56;2076850;28;20498;-67
2022/07/15 12:18:24;;;;;;;4.60;1.83;;;;;;;28.15;26.50;96863.38;2110224;27;20570;-66
2022/07/15 12:19:28;;;;;;;65.45;35.78;;;;;;;29.34;25.31;96875.81;2102247;28;20244;-65
2022/07/15 12:20:30;;;;;;;84.82;44.08;;;;;;;29.95;25.04;96870.31;2101514;28;20211;-67
2022/07/15 12:21:32;;;;;;;47.60;25.58;;;;;;;29.74;24.76;96876.44;2100436;28;20199;-66
2022/07/15 12:22:34;;;;;;;17.42;7.03;;;;;;;29.06;25.02;96879.03;2094152;28;20219;-66
2022/07/15 12:23:35;;;;;;;7.60;2.00;;;;;;;28.41;26.33;96878.41;2095613;28;20727;-66
2022/07/15 12:24:52;;;;;;;3.88;1.60;;;;;;;28.20;26.62;96871.75;2094946;28;20558;-67
2022/07/15 12:26:05;;;;;;;4.05;1.52;;;;;;;28.21;26.25;96870.75;2094348;28;20199;-67
2022/07/15 12:27:07;;;;;;;7.50;1.30;;;;;;;29.16;25.43;96875.06;2095125;28;20222;-67
2022/07/15 12:28:08;;;;;;;15.82;3.45;;;;;;;29.00;25.53;96872.50;2095242;28;20192;-66
2022/07/15 12:29:11;;;;;;;5.40;1.20;;;;;;;28.76;26.27;96877.03;2095332;28;20726;-67
2022/07/15 12:30:13;;;;;;;3.22;1.33;;;;;;;28.14;26.28;96873.31;2094715;28;20192;-67
2022/07/15 12:31:24;;;;;;;4.15;1.10;;;;;;;27.39;27.17;96871.78;2095402;28;20294;-67
2022/07/15 12:32:25;;;;;;;3.55;1.40;;;;;;;27.91;26.91;96875.88;2094538;28;20219;-67
2022/07/15 12:33:27;;;;;;;3.30;1.33;;;;;;;28.25;26.55;96873.94;2095383;28;20215;-67
2022/07/15 12:34:47;;;;;;;5.93;1.10;;;;;;;28.80;26.25;96872.16;2095434;28;20191;-66
2022/07/15 12:35:49;;;;;;;3.10;1.20;;;;;;;28.58;27.00;96877.31;2094052;28;20214;-66
2022/07/15 12:36:58;;;;;;;5.00;1.30;;;;;;;29.03;25.96;96876.66;2095130;28;20257;-66
2022/07/15 12:37:59;;;;;;;6.65;1.30;;;;;;;28.62;26.07;96881.28;2095299;28;20215;-66
2022/07/15 12:39:13;;;;;;;3.65;1.63;;;;;;;29.23;25.31;96877.88;2095408;28;20204;-67
2022/07/15 12:40:23;;;;;;;4.88;1.73;;;;;;;28.65;26.10;96872.03;2094842;28;20285;-67
2022/07/15 12:41:25;;;;;;;2.00;1.00;;;;;;;28.61;26.54;96878.78;2094772;28;20653;-69
2022/07/15 12:42:44;;;;;;;7.55;1.27;;;;;;;29.13;25.75;96878.13;2094805;28;20587;-68
2022/07/15 12:43:48;;;;;;;5.60;1.60;;;;;;;28.92;25.57;96877.94;2094962;28;20199;-69
2022/07/15 12:45:35;;;;;;;5.25;1.77;;;;;;;29.10;25.54;96883.88;2094895;28;20196;-68
2022/07/15 12:46:49;;;;;;;5.15;1.10;;;;;;;29.31;24.98;96882.38;2084990;28;20197;-69
2022/07/15 12:48:02;;;;;;;9.75;1.55;;;;;;;29.62;24.84;96881.41;2085522;28;20258;-68
2022/07/15 12:49:03;;;;;;;4.05;1.55;;;;;;;29.98;24.24;96880.75;2085438;28;20346;-68
2022/07/15 12:50:05;;;;;;;4.53;1.67;;;;;;;29.83;24.75;96879.84;2085693;28;20240;-68
2022/07/15 12:51:07;;;;;;;4.05;1.10;;;;;;;30.35;24.17;96870.84;2085558;28;20644;-68
2022/07/15 12:52:31;;;;;;;4.18;1.15;;;;;;;29.91;24.28;96880.63;2085129;28;20876;-68
2022/07/15 12:53:37;;;;;;;5.45;1.40;;;;;;;29.95;24.16;96875.72;2077233;28;20283;-68
2022/07/15 12:54:39;;;;;;;3.47;1.40;;;;;;;29.92;24.02;96878.78;2078731;28;20197;-68
2022/07/15 12:55:47;;;;;;;6.57;1.60;;;;;;;29.93;24.40;96872.38;2085617;28;20295;-68
2022/07/15 12:56:52;;;;;;;7.07;1.23;;;;;;;29.98;24.47;96869.97;2085072;28;20208;-68
2022/07/15 12:58:09;;;;;;;4.43;1.10;;;;;;;30.14;23.95;96871.63;2085424;28;20201;-69
2022/07/15 12:59:10;;;;;;;4.22;1.52;;;;;;;30.16;23.91;96868.72;2085635;28;20347;-68
2022/07/15 13:00:18;;;;;;;4.00;1.10;;;;;;;30.92;23.65;96871.09;2085536;28;20237;-68
2022/07/15 13:01:20;;;;;;;4.10;1.40;;;;;;;31.07;23.48;96881.84;2085442;28;20421;-68
2022/07/15 13:02:22;;;;;;;14.23;1.67;;;;;;;30.30;23.52;96886.75;2084906;28;20258;-68
2022/07/15 13:03:24;;;;;;;2.03;0.90;;;;;;;29.57;24.31;96881.13;2085553;28;20509;-68
2022/07/15 13:04:26;;;;;;;6.97;1.48;;;;;;;29.70;24.95;96873.28;2085279;28;20472;-68
2022/07/15 13:05:58;;;;;;;5.80;1.30;;;;;;;30.19;23.72;96874.56;2085442;28;20892;-68
2022/07/15 13:07:00;;;;;;;2.53;1.20;;;;;;;29.78;24.32;96873.16;2067253;28;20224;-67
2022/07/15 13:08:01;;;;;;;2.67;0.80;;;;;;;30.11;24.24;96883.59;2085413;28;20429;-67
2022/07/15 13:09:03;;;;;;;4.27;1.27;;;;;;;29.75;25.74;96872.69;2085495;28;20429;-69
2022/07/15 13:10:04;;;;;;;4.77;1.30;;;;;;;30.15;24.14;96869.78;2085431;28;20430;-67
2022/07/15 13:11:08;;;;;;;3.23;1.23;;;;;;;30.48;24.11;96874.78;2085466;28;20853;-68
2022/07/15 13:12:11;;;;;;;5.97;1.50;;;;;;;29.95;24.11;96870.31;2084791;28;20452;-67
2022/07/15 13:13:15;;;;;;;6.20;1.23;;;;;;;30.26;23.74;96878.19;2085456;28;20983;-67
2022/07/15 13:14:16;;;;;;;3.43;1.60;;;;;;;30.37;23.73;96876.03;2084437;28;20422;-68
2022/07/15 13:15:18;;;;;;;20.10;12.93;;;;;;;30.19;24.30;96873.75;2085095;28;20437;-67
2022/07/15 13:16:24;;;;;;;35.90;21.47;;;;;;;30.06;24.39;96877.94;2085405;28;20455;-67
2022/07/15 13:17:25;;;;;;;16.73;9.43;;;;;;;30.44;23.58;96863.50;2083883;28;20573;-67
2022/07/15 13:18:28;;;;;;;3.97;1.27;;;;;;;30.52;23.84;96865.28;2084131;28;20472;-67
2022/07/15 13:19:30;;;;;;;5.23;1.37;;;;;;;30.42;24.36;96868.22;2085366;28;20433;-67
2022/07/15 13:20:32;;;;;;;4.60;1.10;;;;;;;31.07;22.77;96866.50;2085387;28;20422;-67
2022/07/15 13:21:34;;;;;;;2.83;1.20;;;;;;;31.08;22.64;96876.28;2091637;28;20958;-67
2022/07/15 13:22:35;;;;;;;2.53;1.07;;;;;;;31.16;23.08;96877.16;2091617;28;20464;-69
2022/07/15 13:23:37;;;;;;;2.73;1.10;;;;;;;30.90;22.97;96867.75;2098948;28;20419;-70
2022/07/15 13:24:38;;;;;;;7.43;1.10;;;;;;;29.85;23.54;96864.34;2097734;28;20423;-69
2022/07/15 13:25:41;;;;;;;4.73;1.63;;;;;;;29.88;24.29;96875.63;2094635;28;21036;-69
2022/07/15 13:26:42;;;;;;;3.37;1.30;;;;;;;29.48;24.58;96873.16;2092300;28;20425;-69
2022/07/15 13:27:44;;;;;;;7.30;1.33;;;;;;;30.04;23.84;96873.75;2094860;28;20515;-69
2022/07/15 13:28:46;;;;;;;5.80;1.83;;;;;;;29.91;23.89;96866.34;2094757;28;20965;-72
2022/07/15 13:29:47;;;;;;;2.80;1.43;;;;;;;29.41;24.12;96866.81;2089129;28;20425;-72
2022/07/15 13:30:50;;;;;;;5.03;1.60;;;;;;;30.26;24.26;96867.44;2089319;28;20421;-71
2022/07/15 13:31:52;;;;;;;3.67;1.30;;;;;;;30.98;23.21;96864.91;2088677;28;20503;-72
2022/07/15 13:32:53;;;;;;;6.67;1.37;;;;;;;31.01;23.45;96866.38;2089261;28;20896;-72
2022/07/15 13:33:55;;;;;;;4.20;1.13;;;;;;;29.91;24.38;96864.47;2088440;28;20429;-70
2022/07/15 13:34:56;;;;;;;4.53;1.50;;;;;;;29.15;25.04;96865.34;2088628;28;20436;-70
2022/07/15 13:35:58;;;;;;;11.70;1.30;;;;;;;29.98;24.27;96872.66;2088508;28;20421;-70
2022/07/15 13:37:00;;;;;;;3.50;1.40;;;;;;;29.79;24.84;96874.03;2088639;28;20506;-69
2022/07/15 13:38:03;;;;;;;2.93;1.30;;;;;;;29.87;24.48;96865.03;2089217;28;20436;-69
2022/07/15 13:39:05;;;;;;;5.73;1.60;;;;;;;30.52;23.87;96868.78;2089156;28;20460;-69
2022/07/15 13:40:08;;;;;;;2.97;0.97;;;;;;;30.57;23.89;96877.13;2088803;28;20429;-69
2022/07/15 13:41:10;;;;;;;2.57;1.17;;;;;;;30.93;23.70;96872.75;2088965;28;20428;-70
2022/07/15 13:42:11;;;;;;;3.60;1.10;;;;;;;30.97;22.77;96867.81;2088618;28;20461;-69
2022/07/15 13:43:13;;;;;;;5.40;1.40;;;;;;;29.95;23.55;96864.94;2089146;28;20433;-70
2022/07/15 13:44:15;;;;;;;7.40;1.27;;;;;;;30.01;24.03;96860.69;2088443;28;21002;-69
2022/07/15 13:45:16;;;;;;;2.10;1.10;;;;;;;30.58;23.42;96867.22;2079698;28;20441;-69
2022/07/15 13:46:18;;;;;;;1.73;0.97;;;;;;;30.94;23.35;96877.97;2088647;28;20425;-70
2022/07/15 13:47:20;;;;;;;2.90;1.20;;;;;;;31.03;23.50;96869.75;2087414;28;20986;-70
2022/07/15 13:48:22;;;;;;;2.97;1.17;;;;;;;31.15;23.19;96872.78;2089429;28;20425;-69
2022/07/15 13:51:22;;;;;;;3.80;0.90;;;;;;;30.94;23.41;96861.81;2089327;28;20425;-70
2022/07/15 13:52:05;;;;;;;5.30;1.33;;;;;;;30.76;23.74;96867.59;2087942;28;20464;-69
2022/07/15 13:53:07;;;;;;;3.17;1.37;;;;;;;30.83;23.24;96872.22;2089150;28;20422;-69
2022/07/15 13:54:09;;;;;;;1.93;1.00;;;;;;;29.66;24.39;96866.56;2088945;28;20425;-70
2022/07/15 13:55:12;;;;;;;5.83;1.77;;;;;;;29.95;24.35;96873.03;2089190;28;20425;-69
2022/07/15 13:56:14;;;;;;;4.77;1.40;;;;;;;29.67;24.94;96870.94;2089155;28;20457;-69
2022/07/15 13:57:16;;;;;;;2.80;1.30;;;;;;;30.43;23.78;96869.91;2088353;28;20457;-70
2022/07/15 13:58:17;;;;;;;6.13;1.57;;;;;;;30.99;23.09;96881.94;2088430;28;20425;-69